createdAt,value
2023-01-21T00:00:20.846Z,281.50
2023-01-21T00:01:20.902Z,268.00
2023-01-21T00:02:20.871Z,259.90
2023-01-21T00:03:20.824Z,255.50
2023-01-21T00:04:20.828Z,260.30
2023-01-21T00:05:20.786Z,253.90
2023-01-21T00:06:20.809Z,259.70
2023-01-21T00:07:20.772Z,254.20
2023-01-21T00:08:20.767Z,226.40
2023-01-21T00:09:20.746Z,233.40
2023-01-21T00:10:20.768Z,227.60
2023-01-21T00:11:20.754Z,209.80
2023-01-21T00:12:20.674Z,194.30
2023-01-21T00:13:20.685Z,94.30
2023-01-21T00:14:20.683Z,142.20
2023-01-21T00:15:20.658Z,194.20
2023-01-21T00:16:20.680Z,182.50
2023-01-21T00:17:20.635Z,171.30
2023-01-21T00:18:20.810Z,165.90
2023-01-21T00:19:20.617Z,163.90
2023-01-21T00:20:20.608Z,84.60
2023-01-21T00:21:20.644Z,103.10
2023-01-21T00:22:20.577Z,113.40
2023-01-21T00:23:20.576Z,109.20
2023-01-21T00:24:20.564Z,268.60
2023-01-21T00:25:20.548Z,654.70
2023-01-21T00:26:20.614Z,585.90
2023-01-21T00:27:20.540Z,547.90
2023-01-21T00:28:20.512Z,359.60
2023-01-21T00:29:20.517Z,86.30
2023-01-21T00:30:20.499Z,94.00
2023-01-21T00:31:20.620Z,104.40
2023-01-21T00:32:20.463Z,191.30
2023-01-21T00:33:20.451Z,213.80
2023-01-21T00:34:20.439Z,212.80
2023-01-21T00:35:20.451Z,214.90
2023-01-21T00:36:20.461Z,208.10
2023-01-21T00:37:20.421Z,208.10
2023-01-21T00:38:20.415Z,204.40
2023-01-21T00:39:20.377Z,209.00
2023-01-21T00:40:20.373Z,164.70
2023-01-21T00:41:20.413Z,88.90
2023-01-21T00:42:20.367Z,96.20
2023-01-21T00:43:20.344Z,146.20
2023-01-21T00:44:20.340Z,97.90
2023-01-21T00:45:20.335Z,98.90
2023-01-21T00:46:20.402Z,143.10
2023-01-21T00:47:20.319Z,594.90
2023-01-21T00:48:20.292Z,566.40
2023-01-21T00:49:20.287Z,521.30
2023-01-21T00:50:20.268Z,202.40
2023-01-21T00:51:20.336Z,93.50
2023-01-21T00:52:20.256Z,113.40
2023-01-21T00:53:20.248Z,122.30
2023-01-21T00:54:20.284Z,311.00
2023-01-21T00:55:20.212Z,272.30
2023-01-21T00:56:20.245Z,252.10
2023-01-21T00:57:20.220Z,252.30
2023-01-21T00:58:20.168Z,240.50
2023-01-21T00:59:20.187Z,228.40
2023-01-21T01:00:20.157Z,219.50
2023-01-21T01:01:20.227Z,222.10
2023-01-21T01:02:20.148Z,216.60
2023-01-21T01:03:20.114Z,93.40
2023-01-21T01:04:20.115Z,149.90
2023-01-21T01:05:20.105Z,187.10
2023-01-21T01:06:20.131Z,106.30
2023-01-21T01:07:20.094Z,105.00
2023-01-21T01:08:20.062Z,112.30
2023-01-21T01:09:20.050Z,336.40
2023-01-21T01:10:20.041Z,284.00
2023-01-21T01:11:20.102Z,285.50
2023-01-21T01:12:20.036Z,278.00
2023-01-21T01:13:20.011Z,275.30
2023-01-21T01:14:20.012Z,260.80
2023-01-21T01:15:19.983Z,258.80
2023-01-21T01:16:20.017Z,262.10
2023-01-21T01:17:20.007Z,253.80
2023-01-21T01:18:19.949Z,262.20
2023-01-21T01:19:19.947Z,245.40
2023-01-21T01:20:19.935Z,247.60
2023-01-21T01:21:19.918Z,98.70
2023-01-21T01:22:19.951Z,112.20
2023-01-21T01:23:19.899Z,279.40
2023-01-21T01:24:19.877Z,581.90
2023-01-21T01:25:19.881Z,495.90
2023-01-21T01:26:19.870Z,384.30
2023-01-21T01:27:19.885Z,98.10
2023-01-21T01:28:19.862Z,114.20
2023-01-21T01:29:19.828Z,102.20
2023-01-21T01:30:19.825Z,116.60
2023-01-21T01:31:19.868Z,304.20
2023-01-21T01:32:19.833Z,366.40
2023-01-21T01:33:19.794Z,330.50
2023-01-21T01:34:19.766Z,281.00
2023-01-21T01:35:19.777Z,275.60
2023-01-21T01:36:19.747Z,249.10
2023-01-21T01:37:19.784Z,85.40
2023-01-21T01:38:19.756Z,92.00
2023-01-21T01:39:19.717Z,113.20
2023-01-21T01:40:19.767Z,185.60
2023-01-21T01:41:19.717Z,294.30
2023-01-21T01:42:19.742Z,238.20
2023-01-21T01:43:19.678Z,244.70
2023-01-21T01:44:19.679Z,238.80
2023-01-21T01:45:19.654Z,225.90
2023-01-21T01:46:19.653Z,222.70
2023-01-21T01:47:19.671Z,217.50
2023-01-21T01:48:19.614Z,218.50
2023-01-21T01:49:19.636Z,153.20
2023-01-21T01:50:19.620Z,97.30
2023-01-21T01:51:19.630Z,102.10
2023-01-21T01:52:19.624Z,120.70
2023-01-21T01:53:19.603Z,304.30
2023-01-21T01:54:19.564Z,213.80
2023-01-21T01:55:19.531Z,103.80
2023-01-21T01:56:19.549Z,116.50
2023-01-21T01:57:19.575Z,240.50
2023-01-21T01:58:19.510Z,598.20
2023-01-21T01:59:19.493Z,564.20
2023-01-21T02:00:19.630Z,480.00
2023-01-21T02:01:19.547Z,96.60
2023-01-21T02:02:19.516Z,79.00
2023-01-21T02:03:19.462Z,94.40
2023-01-21T02:04:19.462Z,110.30
2023-01-21T02:05:19.408Z,253.20
2023-01-21T02:06:19.410Z,254.90
2023-01-21T02:07:19.459Z,224.50
2023-01-21T02:08:19.417Z,220.00
2023-01-21T02:09:19.439Z,216.40
2023-01-21T02:10:19.559Z,214.10
2023-01-21T02:11:19.363Z,218.50
2023-01-21T02:12:19.393Z,213.60
2023-01-21T02:13:19.335Z,207.80
2023-01-21T02:14:19.348Z,141.00
2023-01-21T02:15:19.323Z,101.70
2023-01-21T02:16:19.381Z,110.00
2023-01-21T02:17:19.356Z,103.10
2023-01-21T02:18:19.295Z,274.30
2023-01-21T02:19:19.284Z,218.10
2023-01-21T02:20:19.249Z,215.00
2023-01-21T02:21:19.261Z,212.30
2023-01-21T02:22:19.311Z,208.60
2023-01-21T02:23:19.234Z,122.60
2023-01-21T02:24:19.203Z,98.50
2023-01-21T02:25:19.222Z,115.90
2023-01-21T02:26:19.223Z,331.30
2023-01-21T02:27:19.296Z,398.50
2023-01-21T02:28:19.177Z,280.00
2023-01-21T02:29:19.185Z,276.40
2023-01-21T02:30:19.291Z,292.10
2023-01-21T02:31:19.318Z,290.40
2023-01-21T02:32:19.172Z,290.90
2023-01-21T02:33:19.096Z,331.70
2023-01-21T02:34:19.100Z,302.20
2023-01-21T02:35:19.086Z,297.80
2023-01-21T02:36:19.096Z,297.60
2023-01-21T02:37:19.122Z,198.20
2023-01-21T02:38:19.065Z,111.40
2023-01-21T02:39:19.054Z,96.40
2023-01-21T02:40:19.292Z,99.80
2023-01-21T02:41:19.032Z,134.60
2023-01-21T02:42:19.067Z,400.00
2023-01-21T02:43:18.995Z,555.00
2023-01-21T02:44:18.997Z,461.10
2023-01-21T02:45:18.994Z,230.30
2023-01-21T02:46:19.004Z,82.40
2023-01-21T02:47:19.005Z,105.10
2023-01-21T02:48:18.954Z,106.30
2023-01-21T02:49:18.921Z,203.80
2023-01-21T02:50:19.120Z,414.70
2023-01-21T02:51:18.924Z,329.80
2023-01-21T02:52:18.947Z,337.00
2023-01-21T02:53:18.883Z,343.20
2023-01-21T02:54:18.879Z,339.70
2023-01-21T02:55:18.872Z,348.20
2023-01-21T02:56:18.853Z,343.40
2023-01-21T02:57:18.882Z,334.20
2023-01-21T02:58:18.829Z,326.10
2023-01-21T02:59:18.830Z,297.60
2023-01-21T03:00:19.134Z,294.40
2023-01-21T03:01:18.793Z,280.40
2023-01-21T03:02:18.895Z,277.60
2023-01-21T03:03:18.788Z,87.40
2023-01-21T03:04:18.768Z,97.50
2023-01-21T03:05:18.741Z,104.10
2023-01-21T03:06:18.752Z,206.00
2023-01-21T03:07:18.783Z,239.60
2023-01-21T03:08:18.723Z,105.80
2023-01-21T03:09:18.710Z,116.40
2023-01-21T03:10:18.777Z,141.60
2023-01-21T03:11:18.722Z,106.90
2023-01-21T03:12:18.726Z,109.20
2023-01-21T03:13:18.678Z,127.70
2023-01-21T03:14:18.649Z,197.50
2023-01-21T03:15:18.635Z,204.30
2023-01-21T03:16:18.656Z,202.70
2023-01-21T03:17:18.662Z,203.50
2023-01-21T03:18:18.601Z,146.40
2023-01-21T03:19:18.597Z,96.60
2023-01-21T03:20:18.821Z,111.00
2023-01-21T03:21:18.585Z,111.40
2023-01-21T03:22:18.613Z,206.50
2023-01-21T03:23:18.551Z,228.80
2023-01-21T03:24:18.548Z,229.90
2023-01-21T03:25:18.526Z,227.10
2023-01-21T03:26:18.521Z,203.40
2023-01-21T03:27:18.534Z,151.10
2023-01-21T03:28:18.508Z,103.10
2023-01-21T03:29:18.471Z,114.10
2023-01-21T03:30:18.763Z,170.00
2023-01-21T03:31:18.482Z,224.10
2023-01-21T03:32:18.509Z,469.20
2023-01-21T03:33:18.439Z,335.60
2023-01-21T03:34:18.437Z,353.50
2023-01-21T03:35:18.421Z,343.90
2023-01-21T03:36:18.401Z,329.90
2023-01-21T03:37:18.431Z,309.40
2023-01-21T03:38:18.413Z,293.40
2023-01-21T03:39:18.389Z,285.10
2023-01-21T03:40:18.634Z,282.00
2023-01-21T03:41:18.351Z,325.10
2023-01-21T03:42:18.382Z,149.90
2023-01-21T03:43:18.335Z,90.10
2023-01-21T03:44:18.323Z,97.00
2023-01-21T03:45:18.324Z,212.30
2023-01-21T03:46:18.294Z,154.80
2023-01-21T03:47:18.323Z,95.60
2023-01-21T03:48:18.270Z,108.00
2023-01-21T03:49:18.264Z,181.00
2023-01-21T03:50:18.686Z,102.80
2023-01-21T03:51:18.288Z,93.60
2023-01-21T03:52:18.271Z,240.80
2023-01-21T03:53:18.221Z,225.10
2023-01-21T03:54:18.203Z,107.00
2023-01-21T03:55:18.188Z,120.00
2023-01-21T03:56:18.186Z,221.20
2023-01-21T03:57:18.252Z,279.10
2023-01-21T03:58:18.164Z,248.90
2023-01-21T03:59:18.167Z,231.40
2023-01-21T04:00:18.417Z,228.90
2023-01-21T04:01:18.152Z,223.00
2023-01-21T04:02:18.218Z,219.80
2023-01-21T04:03:18.099Z,216.40
2023-01-21T04:04:18.099Z,178.20
2023-01-21T04:05:18.083Z,92.60
2023-01-21T04:06:18.078Z,112.10
2023-01-21T04:07:18.099Z,103.60
2023-01-21T04:08:18.047Z,267.80
2023-01-21T04:09:18.048Z,257.00
2023-01-21T04:10:18.483Z,233.40
2023-01-21T04:11:18.009Z,224.50
2023-01-21T04:12:18.051Z,225.60
2023-01-21T04:13:17.992Z,223.10
2023-01-21T04:14:17.999Z,96.80
2023-01-21T04:15:17.965Z,90.00
2023-01-21T04:16:17.981Z,92.20
2023-01-21T04:17:17.950Z,164.00
2023-01-21T04:18:17.976Z,95.30
2023-01-21T04:19:17.918Z,158.70
2023-01-21T04:20:18.255Z,162.40
2023-01-21T04:21:17.901Z,93.60
2023-01-21T04:22:17.892Z,108.60
2023-01-21T04:23:17.933Z,168.40
2023-01-21T04:24:17.874Z,93.90
2023-01-21T04:25:17.860Z,234.30
2023-01-21T04:26:17.866Z,236.20
2023-01-21T04:27:17.813Z,234.20
2023-01-21T04:28:17.870Z,231.20
2023-01-21T04:29:17.794Z,225.30
2023-01-21T04:30:18.202Z,212.30
2023-01-21T04:31:17.824Z,214.60
2023-01-21T04:32:17.773Z,238.00
2023-01-21T04:33:17.823Z,217.40
2023-01-21T04:34:17.761Z,181.70
2023-01-21T04:35:17.756Z,183.50
2023-01-21T04:36:17.747Z,92.90
2023-01-21T04:37:17.725Z,98.60
2023-01-21T04:38:17.769Z,132.60
2023-01-21T04:39:17.711Z,201.00
2023-01-21T04:40:18.044Z,175.90
2023-01-21T04:41:17.671Z,179.40
2023-01-21T04:42:17.700Z,173.80
2023-01-21T04:43:17.696Z,175.90
2023-01-21T04:44:17.672Z,160.80
2023-01-21T04:45:17.626Z,82.90
2023-01-21T04:46:17.692Z,89.60
2023-01-21T04:47:17.618Z,87.80
2023-01-21T04:48:17.647Z,98.40
2023-01-21T04:49:17.591Z,174.30
2023-01-21T04:50:17.863Z,111.00
2023-01-21T04:51:17.628Z,98.30
2023-01-21T04:52:17.571Z,143.20
2023-01-21T04:53:17.619Z,90.30
2023-01-21T04:54:17.537Z,154.70
2023-01-21T04:55:17.521Z,219.30
2023-01-21T04:56:17.520Z,216.50
2023-01-21T04:57:17.487Z,216.90
2023-01-21T04:58:17.524Z,216.40
2023-01-21T04:59:17.480Z,214.10
2023-01-21T05:00:17.628Z,214.50
2023-01-21T05:01:17.529Z,215.80
2023-01-21T05:02:17.492Z,214.10
2023-01-21T05:03:17.475Z,129.30
2023-01-21T05:04:17.425Z,165.60
2023-01-21T05:05:17.417Z,91.60
2023-01-21T05:06:17.405Z,162.20
2023-01-21T05:07:17.714Z,207.10
2023-01-21T05:08:17.432Z,154.30
2023-01-21T05:09:17.367Z,98.60
2023-01-21T05:10:17.730Z,169.00
2023-01-21T05:11:17.353Z,187.00
2023-01-21T05:12:17.336Z,181.90
2023-01-21T05:13:17.360Z,171.30
2023-01-21T05:14:17.307Z,88.40
2023-01-21T05:15:17.308Z,101.00
2023-01-21T05:16:17.337Z,93.80
2023-01-21T05:17:17.274Z,281.70
2023-01-21T05:18:17.315Z,312.80
2023-01-21T05:19:17.255Z,280.90
2023-01-21T05:20:17.628Z,296.70
2023-01-21T05:21:17.235Z,271.10
2023-01-21T05:22:17.212Z,273.00
2023-01-21T05:23:17.264Z,277.90
2023-01-21T05:24:17.200Z,277.50
2023-01-21T05:25:17.199Z,230.60
2023-01-21T05:26:17.168Z,102.70
2023-01-21T05:27:17.157Z,89.20
2023-01-21T05:28:17.193Z,90.30
2023-01-21T05:29:17.182Z,103.90
2023-01-21T05:30:17.293Z,116.80
2023-01-21T05:31:17.275Z,506.10
2023-01-21T05:32:17.130Z,588.60
2023-01-21T05:33:17.170Z,526.90
2023-01-21T05:34:17.085Z,567.80
2023-01-21T05:35:17.084Z,503.50
2023-01-21T05:36:17.076Z,203.90
2023-01-21T05:37:17.075Z,84.80
2023-01-21T05:38:17.095Z,91.20
2023-01-21T05:39:17.046Z,80.30
2023-01-21T05:40:17.249Z,93.90
2023-01-21T05:41:17.045Z,138.60
2023-01-21T05:42:17.029Z,148.00
2023-01-21T05:43:17.047Z,91.90
2023-01-21T05:44:17.884Z,98.40
2023-01-21T05:45:16.993Z,296.10
2023-01-21T05:46:16.995Z,284.80
2023-01-21T05:47:16.958Z,273.30
2023-01-21T05:48:16.965Z,271.80
2023-01-21T05:49:16.930Z,270.10
2023-01-21T05:50:17.258Z,269.50
2023-01-21T05:51:17.033Z,262.60
2023-01-21T05:52:16.894Z,248.90
2023-01-21T05:53:16.911Z,241.30
2023-01-21T05:54:16.883Z,143.80
2023-01-21T05:55:16.850Z,88.60
2023-01-21T05:56:16.863Z,98.30
2023-01-21T05:57:16.835Z,110.70
2023-01-21T05:58:16.902Z,162.30
2023-01-21T05:59:16.837Z,111.10
2023-01-21T06:00:17.227Z,97.40
2023-01-21T06:01:16.816Z,136.50
2023-01-21T06:02:16.818Z,449.60
2023-01-21T06:03:16.857Z,594.70
2023-01-21T06:04:16.767Z,539.50
2023-01-21T06:05:16.786Z,432.50
2023-01-21T06:06:16.744Z,84.00
2023-01-21T06:07:16.730Z,94.90
2023-01-21T06:08:16.757Z,93.30
2023-01-21T06:09:16.692Z,201.20
2023-01-21T06:10:17.050Z,240.40
2023-01-21T06:11:16.679Z,221.80
2023-01-21T06:12:16.686Z,85.70
2023-01-21T06:13:16.718Z,97.70
2023-01-21T06:14:16.696Z,121.70
2023-01-21T06:15:16.654Z,325.00
2023-01-21T06:16:16.636Z,287.80
2023-01-21T06:17:16.626Z,279.70
2023-01-21T06:18:16.674Z,266.80
2023-01-21T06:19:16.583Z,264.80
2023-01-21T06:20:16.913Z,258.20
2023-01-21T06:21:16.560Z,237.40
2023-01-21T06:22:16.556Z,247.80
2023-01-21T06:23:16.587Z,84.50
2023-01-21T06:24:16.522Z,89.40
2023-01-21T06:25:16.527Z,98.30
2023-01-21T06:26:16.514Z,99.80
2023-01-21T06:27:16.497Z,310.40
2023-01-21T06:28:16.537Z,555.80
2023-01-21T06:29:16.476Z,500.80
2023-01-21T06:30:16.745Z,171.40
2023-01-21T06:31:16.465Z,85.80
2023-01-21T06:32:16.450Z,89.20
2023-01-21T06:33:16.461Z,105.30
2023-01-21T06:34:16.429Z,119.50
2023-01-21T06:35:16.406Z,100.00
2023-01-21T06:36:16.397Z,179.40
2023-01-21T06:37:16.383Z,220.20
2023-01-21T06:38:16.422Z,214.90
2023-01-21T06:39:16.354Z,221.60
2023-01-21T06:40:16.626Z,214.50
2023-01-21T06:41:16.343Z,140.60
2023-01-21T06:42:16.335Z,91.00
2023-01-21T06:43:16.366Z,111.60
2023-01-21T06:44:16.315Z,119.50
2023-01-21T06:45:16.314Z,197.60
2023-01-21T06:46:16.334Z,144.00
2023-01-21T06:47:16.281Z,93.10
2023-01-21T06:48:16.304Z,95.70
2023-01-21T06:49:16.249Z,100.40
2023-01-21T06:50:16.492Z,117.20
2023-01-21T06:51:16.241Z,232.10
2023-01-21T06:52:16.247Z,255.70
2023-01-21T06:53:16.241Z,243.40
2023-01-21T06:54:16.201Z,238.60
2023-01-21T06:55:16.201Z,240.90
2023-01-21T06:56:16.177Z,236.00
2023-01-21T06:57:16.163Z,231.20
2023-01-21T06:58:16.196Z,217.70
2023-01-21T06:59:16.146Z,96.90
2023-01-21T07:00:16.521Z,92.50
2023-01-21T07:01:16.172Z,99.90
2023-01-21T07:02:16.102Z,189.00
2023-01-21T07:03:16.099Z,430.50
2023-01-21T07:04:16.127Z,426.80
2023-01-21T07:05:16.595Z,270.00
2023-01-21T07:06:16.066Z,364.50
2023-01-21T07:07:16.061Z,304.90
2023-01-21T07:08:16.049Z,254.60
2023-01-21T07:09:16.075Z,261.70
2023-01-21T07:10:16.449Z,246.80
2023-01-21T07:11:16.003Z,261.10
2023-01-21T07:12:15.997Z,247.30
2023-01-21T07:13:15.995Z,247.90
2023-01-21T07:14:16.030Z,240.10
2023-01-21T07:15:16.216Z,235.70
2023-01-21T07:16:15.969Z,232.90
2023-01-21T07:17:15.946Z,71.80
2023-01-21T07:18:15.945Z,84.60
2023-01-21T07:19:15.960Z,80.30
2023-01-21T07:20:15.921Z,117.50
2023-01-21T07:21:15.888Z,88.00
2023-01-21T07:22:15.875Z,146.20
2023-01-21T07:23:15.876Z,107.80
2023-01-21T07:24:15.907Z,109.20
2023-01-21T07:25:16.133Z,85.70
2023-01-21T07:26:15.844Z,85.30
2023-01-21T07:27:15.822Z,164.90
2023-01-21T07:28:15.828Z,245.60
2023-01-21T07:29:15.842Z,236.10
2023-01-21T07:30:16.010Z,222.30
2023-01-21T07:31:15.864Z,201.50
2023-01-21T07:32:15.782Z,191.60
2023-01-21T07:33:15.766Z,185.60
2023-01-21T07:34:15.795Z,175.30
2023-01-21T07:35:16.111Z,176.40
2023-01-21T07:36:15.724Z,172.40
2023-01-21T07:37:15.721Z,170.10
2023-01-21T07:38:15.739Z,76.40
2023-01-21T07:39:15.741Z,72.00
2023-01-21T07:40:15.700Z,104.00
2023-01-21T07:41:15.665Z,96.20
2023-01-21T07:42:15.663Z,204.30
2023-01-21T07:43:15.637Z,202.00
2023-01-21T07:44:15.700Z,200.70
2023-01-21T07:45:15.812Z,189.40
2023-01-21T07:46:15.650Z,165.10
2023-01-21T07:47:15.609Z,176.20
2023-01-21T07:48:15.605Z,182.80
2023-01-21T07:49:15.623Z,178.50
2023-01-21T07:50:15.575Z,175.50
2023-01-21T07:51:15.557Z,91.00
2023-01-21T07:52:15.545Z,80.30
2023-01-21T07:53:15.544Z,118.50
2023-01-21T07:54:15.589Z,68.90
2023-01-21T07:55:15.847Z,79.70
2023-01-21T07:56:15.515Z,153.90
2023-01-21T07:57:15.502Z,118.40
2023-01-21T07:58:15.484Z,66.00
2023-01-21T07:59:15.515Z,109.00
2023-01-21T08:00:15.473Z,171.70
2023-01-21T08:01:15.455Z,151.70
2023-01-21T08:02:15.504Z,178.00
2023-01-21T08:03:15.424Z,369.10
2023-01-21T08:04:15.470Z,462.70
2023-01-21T08:05:15.870Z,335.30
2023-01-21T08:06:15.403Z,332.10
2023-01-21T08:07:15.402Z,355.50
2023-01-21T08:08:15.374Z,360.10
2023-01-21T08:09:15.421Z,380.40
2023-01-21T08:10:15.356Z,365.50
2023-01-21T08:11:15.336Z,392.40
2023-01-21T08:12:15.331Z,408.10
2023-01-21T08:13:15.311Z,436.80
2023-01-21T08:14:15.354Z,439.30
2023-01-21T08:15:15.551Z,440.30
2023-01-21T08:16:15.319Z,441.00
2023-01-21T08:17:15.268Z,439.20
2023-01-21T08:18:15.255Z,434.30
2023-01-21T08:19:15.297Z,435.40
2023-01-21T08:20:15.224Z,432.30
2023-01-21T08:21:15.235Z,433.40
2023-01-21T08:22:15.228Z,403.80
2023-01-21T08:23:15.235Z,416.20
2023-01-21T08:24:15.242Z,373.50
2023-01-21T08:25:15.308Z,379.10
2023-01-21T08:26:15.178Z,388.10
2023-01-21T08:27:15.155Z,382.90
2023-01-21T08:28:15.152Z,359.10
2023-01-21T08:29:15.173Z,354.40
2023-01-21T08:30:15.136Z,309.60
2023-01-21T08:31:15.160Z,344.80
2023-01-21T08:32:15.122Z,338.70
2023-01-21T08:33:15.083Z,337.30
2023-01-21T08:34:15.120Z,327.70
2023-01-21T08:35:15.437Z,185.60
2023-01-21T08:36:15.064Z,999.90
2023-01-21T08:37:15.047Z,351.80
2023-01-21T08:38:15.037Z,85.80
2023-01-21T08:39:15.100Z,110.90
2023-01-21T08:40:15.007Z,999.90
2023-01-21T08:41:14.997Z,999.90
2023-01-21T08:42:15.003Z,378.10
2023-01-21T08:43:14.976Z,269.70
2023-01-21T08:44:15.029Z,999.90
2023-01-21T08:45:15.525Z,556.50
2023-01-21T08:46:14.950Z,451.60
2023-01-21T08:47:14.926Z,999.90
2023-01-21T08:48:14.910Z,999.90
2023-01-21T08:49:14.946Z,999.90
2023-01-21T08:50:14.889Z,304.80
2023-01-21T08:51:14.944Z,352.30
2023-01-21T08:52:14.878Z,999.90
2023-01-21T08:53:14.860Z,999.90
2023-01-21T08:54:14.892Z,999.90
2023-01-21T08:55:15.216Z,223.60
2023-01-21T08:56:14.829Z,253.20
2023-01-21T08:57:14.814Z,138.00
2023-01-21T08:58:14.808Z,215.50
2023-01-21T08:59:14.833Z,241.30
2023-01-21T09:00:14.781Z,216.80
2023-01-21T09:01:14.828Z,184.10
2023-01-21T09:02:14.775Z,252.70
2023-01-21T09:03:14.747Z,999.90
2023-01-21T09:04:14.775Z,354.30
2023-01-21T09:05:14.961Z,999.90
2023-01-21T09:06:14.724Z,999.90
2023-01-21T09:07:14.703Z,999.90
2023-01-21T09:08:14.701Z,999.90
2023-01-21T09:09:14.754Z,999.90
2023-01-21T09:10:14.672Z,999.90
2023-01-21T09:11:14.660Z,999.90
2023-01-21T09:12:14.651Z,999.90
2023-01-21T09:13:14.641Z,999.90
2023-01-21T09:14:14.657Z,999.90
2023-01-21T09:15:14.870Z,999.90
2023-01-21T09:16:14.640Z,212.40
2023-01-21T09:17:14.588Z,999.90
2023-01-21T09:18:14.570Z,999.90
2023-01-21T09:19:14.609Z,999.90
2023-01-21T09:20:14.554Z,999.90
2023-01-21T09:21:14.561Z,999.90
2023-01-21T09:22:14.528Z,999.90
2023-01-21T09:23:14.526Z,999.90
2023-01-21T09:24:14.554Z,999.90
2023-01-21T09:25:14.597Z,999.90
2023-01-21T09:26:14.490Z,999.90
2023-01-21T09:27:14.490Z,999.90
2023-01-21T09:28:14.472Z,999.90
2023-01-21T09:29:14.494Z,999.90
2023-01-21T09:30:14.457Z,999.90
2023-01-21T09:31:14.455Z,999.90
2023-01-21T09:32:14.435Z,999.90
2023-01-21T09:33:14.433Z,999.90
2023-01-21T09:34:14.418Z,999.90
2023-01-21T09:35:14.759Z,999.90
2023-01-21T09:36:14.394Z,999.90
2023-01-21T09:37:14.367Z,999.90
2023-01-21T09:38:14.361Z,999.90
2023-01-21T09:39:14.363Z,999.90
2023-01-21T09:40:14.373Z,999.90
2023-01-21T09:41:14.322Z,999.90
2023-01-21T09:42:14.301Z,999.90
2023-01-21T09:43:14.293Z,999.90
2023-01-21T09:44:14.300Z,999.90
2023-01-21T09:45:14.587Z,999.90
2023-01-21T09:46:14.273Z,999.90
2023-01-21T09:47:14.244Z,999.90
2023-01-21T09:48:14.236Z,999.90
2023-01-21T09:49:14.219Z,999.90
2023-01-21T09:50:14.283Z,999.90
2023-01-21T09:51:14.287Z,999.90
2023-01-21T09:52:14.210Z,999.90
2023-01-21T09:53:14.200Z,999.90
2023-01-21T09:54:14.209Z,999.90
2023-01-21T09:55:14.253Z,999.90
2023-01-21T09:56:14.130Z,999.90
2023-01-21T09:57:14.157Z,999.90
2023-01-21T09:58:14.109Z,999.90
2023-01-21T09:59:14.122Z,999.90
2023-01-21T10:00:14.166Z,999.90
2023-01-21T10:01:14.152Z,999.90
2023-01-21T10:02:14.094Z,999.90
2023-01-21T10:03:14.090Z,999.90
2023-01-21T10:04:14.090Z,999.90
2023-01-21T10:05:14.180Z,999.90
2023-01-21T10:06:14.036Z,999.90
2023-01-21T10:07:14.013Z,999.90
2023-01-21T10:08:14.024Z,999.90
2023-01-21T10:09:14.005Z,999.90
2023-01-21T10:10:14.046Z,999.90
2023-01-21T10:11:13.972Z,999.90
2023-01-21T10:12:13.966Z,999.90
2023-01-21T10:13:13.961Z,999.90
2023-01-21T10:14:13.938Z,999.90
2023-01-21T10:15:13.972Z,999.90
2023-01-21T10:16:13.918Z,999.90
2023-01-21T10:17:13.917Z,999.90
2023-01-21T10:18:13.907Z,999.90
2023-01-21T10:19:13.885Z,999.90
2023-01-21T10:20:13.937Z,999.90
2023-01-21T10:21:13.892Z,999.90
2023-01-21T10:22:13.884Z,999.90
2023-01-21T10:23:13.840Z,999.90
2023-01-21T10:24:13.884Z,999.90
2023-01-21T10:25:13.892Z,999.90
2023-01-21T10:26:13.822Z,999.90
2023-01-21T10:27:13.815Z,999.90
2023-01-21T10:28:13.800Z,999.90
2023-01-21T10:29:13.800Z,999.90
2023-01-21T10:30:13.830Z,999.90
2023-01-21T10:31:13.818Z,999.90
2023-01-21T10:32:13.737Z,999.90
2023-01-21T10:33:13.745Z,999.90
2023-01-21T10:34:13.729Z,999.90
2023-01-21T10:35:13.752Z,999.90
2023-01-21T10:36:13.702Z,999.90
2023-01-21T10:37:13.714Z,999.90
2023-01-21T10:38:13.675Z,999.90
2023-01-21T10:39:13.683Z,999.90
2023-01-21T10:40:13.697Z,999.90
2023-01-21T10:41:13.640Z,999.90
2023-01-21T10:42:13.640Z,999.90
2023-01-21T10:43:13.627Z,999.90
2023-01-21T10:44:13.618Z,999.90
2023-01-21T10:45:13.680Z,999.90
2023-01-21T10:46:13.616Z,999.90
2023-01-21T10:47:13.596Z,999.90
2023-01-21T10:48:13.565Z,999.90
2023-01-21T10:49:13.575Z,999.90
2023-01-21T10:50:13.616Z,999.90
2023-01-21T10:51:13.612Z,999.90
2023-01-21T10:52:13.528Z,999.90
2023-01-21T10:53:13.533Z,999.90
2023-01-21T10:54:13.504Z,999.90
2023-01-21T10:55:13.528Z,999.90
2023-01-21T10:56:13.479Z,999.90
2023-01-21T10:57:13.474Z,999.90
2023-01-21T10:58:13.462Z,999.90
2023-01-21T10:59:13.448Z,999.90
2023-01-21T11:00:13.470Z,999.90
2023-01-21T11:01:13.432Z,999.90
2023-01-21T11:02:13.474Z,999.90
2023-01-21T11:03:13.407Z,999.90
2023-01-21T11:04:13.373Z,999.90
2023-01-21T11:05:13.421Z,999.90
2023-01-21T11:06:13.370Z,999.90
2023-01-21T11:07:13.358Z,999.90
2023-01-21T11:08:13.336Z,999.90
2023-01-21T11:09:13.387Z,999.90
2023-01-21T11:10:13.372Z,999.90
2023-01-21T11:11:13.326Z,999.90
2023-01-21T11:12:13.296Z,999.90
2023-01-21T11:13:13.277Z,999.90
2023-01-21T11:14:13.283Z,999.90
2023-01-21T11:15:13.325Z,999.90
2023-01-21T11:16:13.350Z,999.90
2023-01-21T11:17:13.276Z,999.90
2023-01-21T11:18:13.247Z,999.90
2023-01-21T11:19:13.248Z,793.70
2023-01-21T11:20:13.269Z,938.50
2023-01-21T11:21:13.206Z,718.00
2023-01-21T11:22:13.179Z,192.30
2023-01-21T11:23:13.186Z,476.60
2023-01-21T11:24:13.159Z,574.00
2023-01-21T11:25:13.203Z,999.90
2023-01-21T11:26:13.157Z,271.90
2023-01-21T11:27:13.146Z,999.90
2023-01-21T11:28:13.149Z,478.00
2023-01-21T11:29:13.091Z,751.10
2023-01-21T11:30:34.224Z,430.20
2023-01-21T11:31:14.203Z,999.90
2023-01-21T11:32:13.112Z,343.80
2023-01-21T11:33:13.050Z,999.90
2023-01-21T11:34:13.063Z,735.60
2023-01-21T11:35:13.115Z,999.90
2023-01-21T11:36:13.044Z,999.90
2023-01-21T11:37:13.022Z,999.90
2023-01-21T11:38:13.000Z,632.80
2023-01-21T11:39:13.006Z,650.90
2023-01-21T11:40:13.045Z,999.90
2023-01-21T11:41:13.004Z,999.90
2023-01-21T11:42:12.961Z,999.90
2023-01-21T11:43:12.966Z,999.90
2023-01-21T11:44:12.923Z,860.10
2023-01-21T11:45:12.990Z,999.90
2023-01-21T11:46:12.928Z,999.90
2023-01-21T11:47:12.903Z,999.90
2023-01-21T11:48:12.910Z,999.90
2023-01-21T11:49:12.873Z,999.90
2023-01-21T11:50:12.908Z,999.90
2023-01-21T11:51:12.897Z,999.90
2023-01-21T11:52:12.857Z,999.90
2023-01-21T11:53:12.843Z,999.90
2023-01-21T11:54:12.811Z,999.90
2023-01-21T11:55:12.890Z,999.90
2023-01-21T11:56:12.795Z,999.90
2023-01-21T11:57:12.815Z,999.90
2023-01-21T11:58:12.787Z,999.90
2023-01-21T11:59:12.759Z,999.90
2023-01-21T12:00:12.839Z,999.90
2023-01-21T12:01:12.799Z,999.90
2023-01-21T12:02:12.738Z,999.90
2023-01-21T12:03:12.749Z,999.90
2023-01-21T12:04:12.721Z,999.90
2023-01-21T12:05:12.709Z,999.90
2023-01-21T12:06:12.735Z,999.90
2023-01-21T12:07:12.679Z,999.90
2023-01-21T12:08:12.688Z,999.90
2023-01-21T12:09:12.658Z,999.90
2023-01-21T12:10:12.807Z,999.90
2023-01-21T12:11:12.680Z,999.90
2023-01-21T12:12:12.616Z,999.90
2023-01-21T12:13:12.630Z,999.90
2023-01-21T12:14:12.604Z,999.90
2023-01-21T12:15:12.621Z,999.90
2023-01-21T12:16:12.703Z,999.90
2023-01-21T12:17:12.576Z,999.90
2023-01-21T12:18:12.551Z,999.90
2023-01-21T12:19:12.564Z,999.90
2023-01-21T12:20:12.542Z,999.90
2023-01-21T12:21:12.589Z,999.90
2023-01-21T12:22:12.518Z,999.90
2023-01-21T12:23:12.499Z,999.90
2023-01-21T12:24:12.493Z,999.90
2023-01-21T12:25:12.494Z,999.90
2023-01-21T12:26:12.499Z,999.90
2023-01-21T12:27:12.442Z,999.90
2023-01-21T12:28:12.432Z,999.90
2023-01-21T12:29:12.453Z,999.90
2023-01-21T12:30:12.424Z,999.90
2023-01-21T12:31:12.565Z,999.90